createdAt,value
2022-08-28T00:02:03.568Z,100.00
2022-08-28T00:04:31.039Z,100.00
2022-08-28T00:06:58.772Z,100.00
2022-08-28T00:09:26.317Z,100.00
2022-08-28T00:11:54.534Z,100.00
2022-08-28T00:14:23.444Z,100.00
2022-08-28T00:16:52.601Z,100.00
2022-08-28T00:19:20.665Z,100.00
2022-08-28T00:21:48.100Z,100.00
2022-08-28T00:24:15.482Z,100.00
2022-08-28T00:27:01.695Z,100.00
2022-08-28T00:29:29.575Z,100.00
2022-08-28T00:31:56.916Z,100.00
2022-08-28T00:34:28.483Z,100.00
2022-08-28T00:37:01.515Z,100.00
2022-08-28T00:39:29.031Z,100.00
2022-08-28T00:41:58.012Z,100.00
2022-08-28T00:44:27.752Z,100.00
2022-08-28T00:46:57.014Z,100.00
2022-08-28T00:49:26.849Z,100.00
2022-08-28T00:52:11.897Z,100.00
2022-08-28T00:54:56.826Z,100.00
2022-08-28T00:57:34.139Z,100.00
2022-08-28T01:00:01.745Z,100.00
2022-08-28T01:02:29.742Z,100.00
2022-08-28T01:04:57.030Z,100.00
2022-08-28T01:07:24.213Z,100.00
2022-08-28T01:09:54.164Z,100.00
2022-08-28T01:12:25.664Z,100.00
2022-08-28T01:14:57.938Z,100.00
2022-08-28T01:17:26.643Z,100.00
2022-08-28T01:19:58.475Z,100.00
2022-08-28T01:22:59.630Z,100.00
2022-08-28T01:25:28.619Z,100.00
2022-08-28T01:27:56.500Z,100.00
2022-08-28T01:30:24.609Z,100.00
2022-08-28T01:32:54.897Z,100.00
2022-08-28T01:35:26.434Z,100.00
2022-08-28T01:37:55.808Z,100.00
2022-08-28T01:40:37.962Z,100.00
2022-08-28T01:43:20.902Z,100.00
2022-08-28T01:45:55.940Z,100.00
2022-08-28T01:48:25.708Z,100.00
2022-08-28T01:50:53.835Z,100.00
2022-08-28T01:53:24.984Z,100.00
2022-08-28T01:55:54.265Z,100.00
2022-08-28T01:58:22.819Z,100.00
2022-08-28T02:00:53.710Z,100.00
2022-08-28T02:03:22.853Z,100.00
2022-08-28T02:05:50.694Z,100.00
2022-08-28T02:08:18.439Z,100.00
2022-08-28T02:10:46.322Z,100.00
2022-08-28T02:13:13.832Z,100.00
2022-08-28T02:15:42.908Z,100.00
2022-08-28T02:18:10.840Z,100.00
2022-08-28T02:20:38.378Z,100.00
2022-08-28T02:23:06.858Z,100.00
2022-08-28T02:25:34.282Z,100.00
2022-08-28T02:28:01.529Z,100.00
2022-08-28T02:30:28.785Z,100.00
2022-08-28T02:32:56.547Z,100.00
2022-08-28T02:35:24.353Z,100.00
2022-08-28T02:37:51.959Z,100.00
2022-08-28T02:40:23.908Z,100.00
2022-08-28T02:42:52.290Z,100.00
2022-08-28T02:45:20.615Z,100.00
2022-08-28T02:47:48.759Z,100.00
2022-08-28T02:50:17.759Z,100.00
2022-08-28T02:52:46.489Z,100.00
2022-08-28T02:55:15.925Z,100.00
2022-08-28T02:57:43.553Z,100.00
2022-08-28T03:00:13.809Z,100.00
2022-08-28T03:02:42.248Z,100.00
2022-08-28T03:05:10.716Z,100.00
2022-08-28T03:07:38.043Z,100.00
2022-08-28T03:10:07.448Z,100.00
2022-08-28T03:12:35.031Z,100.00
2022-08-28T03:15:02.700Z,100.00
2022-08-28T03:17:30.649Z,100.00
2022-08-28T03:19:57.924Z,100.00
2022-08-28T03:22:44.172Z,100.00
2022-08-28T03:25:12.533Z,100.00
2022-08-28T03:27:39.906Z,100.00
2022-08-28T03:30:08.210Z,100.00
2022-08-28T03:32:36.003Z,100.00
2022-08-28T03:35:05.461Z,100.00
2022-08-28T03:37:32.620Z,100.00
2022-08-28T03:40:00.732Z,100.00
2022-08-28T03:42:27.995Z,100.00
2022-08-28T03:44:55.396Z,100.00
2022-08-28T03:47:24.763Z,100.00
2022-08-28T03:49:58.633Z,100.00
2022-08-28T03:52:26.339Z,100.00
2022-08-28T03:54:53.770Z,100.00
2022-08-28T03:57:22.938Z,100.00
2022-08-28T03:59:52.638Z,100.00
2022-08-28T04:02:20.775Z,100.00
2022-08-28T04:04:49.363Z,100.00
2022-08-28T04:07:18.218Z,100.00
2022-08-28T04:09:45.877Z,100.00
2022-08-28T04:12:14.490Z,100.00
2022-08-28T04:14:42.118Z,100.00
2022-08-28T04:17:10.250Z,100.00
2022-08-28T04:19:38.166Z,100.00
2022-08-28T04:22:05.825Z,100.00
2022-08-28T04:24:33.303Z,100.00
2022-08-28T04:27:00.465Z,100.00
2022-08-28T04:29:29.899Z,100.00
2022-08-28T04:31:58.321Z,100.00
2022-08-28T04:34:25.703Z,100.00
2022-08-28T04:36:54.191Z,100.00
2022-08-28T04:39:21.638Z,100.00
2022-08-28T04:41:50.301Z,100.00
2022-08-28T04:44:17.931Z,100.00
2022-08-28T04:46:45.120Z,100.00
2022-08-28T04:49:16.238Z,100.00
2022-08-28T04:51:43.839Z,100.00
2022-08-28T04:54:14.487Z,100.00
2022-08-28T04:56:41.703Z,100.00
2022-08-28T04:59:10.375Z,100.00
2022-08-28T05:01:38.043Z,100.00
2022-08-28T05:04:05.290Z,100.00
2022-08-28T05:06:33.658Z,100.00
2022-08-28T05:09:03.546Z,100.00
2022-08-28T05:11:34.147Z,100.00
2022-08-28T05:14:05.050Z,100.00
2022-08-28T05:16:34.814Z,98.50
2022-08-28T05:19:03.335Z,95.05
2022-08-28T05:21:30.795Z,93.77
2022-08-28T05:23:59.225Z,90.73
2022-08-28T05:26:28.244Z,88.80
2022-08-28T05:28:57.173Z,87.56
2022-08-28T05:31:25.254Z,84.33
2022-08-28T05:33:53.590Z,84.03
2022-08-28T05:36:25.907Z,83.61
2022-08-28T05:39:00.363Z,81.74
2022-08-28T05:41:33.008Z,82.95
2022-08-28T05:44:03.979Z,82.80
2022-08-28T05:46:31.845Z,84.11
2022-08-28T05:49:00.493Z,81.02
2022-08-28T05:51:28.761Z,81.33
2022-08-28T05:53:57.929Z,82.30
2022-08-28T05:56:32.833Z,78.90
2022-08-28T05:59:02.343Z,77.64
2022-08-28T06:01:32.232Z,78.57
2022-08-28T06:04:01.981Z,76.13
2022-08-28T06:06:31.679Z,73.74
2022-08-28T06:09:01.453Z,71.93
2022-08-28T06:11:30.764Z,71.94
2022-08-28T06:14:02.439Z,72.46
2022-08-28T06:16:32.205Z,69.90
2022-08-28T06:19:00.830Z,69.28
2022-08-28T06:21:29.185Z,69.65
2022-08-28T06:23:56.451Z,69.28
2022-08-28T06:26:24.019Z,69.16
2022-08-28T06:28:53.309Z,67.08
2022-08-28T06:31:24.731Z,66.06
2022-08-28T06:33:55.050Z,67.64
2022-08-28T06:36:23.262Z,65.34
2022-08-28T06:38:51.116Z,64.21
2022-08-28T06:41:19.873Z,63.47
2022-08-28T06:43:47.177Z,62.84
2022-08-28T06:46:14.473Z,66.40
2022-08-28T06:48:42.221Z,60.40
2022-08-28T06:51:11.953Z,60.52
2022-08-28T06:53:41.061Z,58.53
2022-08-28T06:56:25.522Z,56.77
2022-08-28T06:58:56.753Z,55.80
2022-08-28T07:01:29.396Z,57.69
2022-08-28T07:04:00.118Z,54.54
2022-08-28T07:06:28.732Z,54.94
2022-08-28T07:08:55.980Z,52.30
2022-08-28T07:11:26.857Z,52.16
2022-08-28T07:13:55.393Z,53.81
2022-08-28T07:16:29.640Z,52.45
2022-08-28T07:18:57.573Z,55.43
2022-08-28T07:21:25.704Z,52.47
2022-08-28T07:23:53.506Z,53.12
2022-08-28T07:26:23.723Z,53.77
2022-08-28T07:28:53.503Z,53.99
2022-08-28T07:31:40.201Z,51.72
2022-08-28T07:34:08.742Z,52.99
2022-08-28T07:36:36.011Z,51.74
2022-08-28T07:39:05.369Z,49.63
2022-08-28T07:41:35.644Z,56.69
2022-08-28T07:44:21.853Z,52.61
2022-08-28T07:46:54.595Z,53.02
2022-08-28T07:49:22.314Z,49.85
2022-08-28T07:51:49.953Z,50.91
2022-08-28T07:54:23.111Z,50.32
2022-08-28T07:56:50.889Z,46.49
2022-08-28T07:59:19.277Z,46.85
2022-08-28T08:01:48.876Z,46.32
2022-08-28T08:04:17.487Z,46.10
2022-08-28T08:06:45.328Z,45.37
2022-08-28T08:09:16.241Z,44.74
2022-08-28T08:11:43.812Z,46.71
2022-08-28T08:14:12.112Z,46.48
2022-08-28T08:16:42.608Z,46.98
2022-08-28T08:19:14.091Z,44.67
2022-08-28T08:21:53.223Z,44.06
2022-08-28T08:24:25.935Z,46.01
2022-08-28T08:27:00.080Z,46.30
2022-08-28T08:29:31.577Z,43.74
2022-08-28T08:32:05.549Z,45.49
2022-08-28T08:34:39.898Z,47.54
2022-08-28T08:37:07.982Z,45.06
2022-08-28T08:39:36.192Z,45.70
2022-08-28T08:42:21.493Z,47.49
2022-08-28T08:44:52.193Z,46.71
2022-08-28T08:47:49.330Z,46.18
2022-08-28T08:50:21.005Z,46.10
2022-08-28T08:52:55.613Z,44.01
2022-08-28T08:55:31.749Z,41.93
2022-08-28T08:58:15.883Z,42.30
2022-08-28T09:01:04.347Z,44.46
2022-08-28T09:03:56.342Z,44.97
2022-08-28T09:06:33.510Z,40.44
2022-08-28T09:09:04.040Z,42.03
2022-08-28T09:11:35.677Z,42.69
2022-08-28T09:14:17.060Z,45.26
2022-08-28T09:16:48.396Z,41.53
2022-08-28T09:19:20.459Z,43.94
2022-08-28T09:21:49.550Z,45.24
2022-08-28T09:24:29.041Z,43.85
2022-08-28T09:26:59.527Z,44.86
2022-08-28T09:29:43.508Z,45.61
2022-08-28T09:32:25.264Z,44.05
2022-08-28T09:35:19.278Z,44.67
2022-08-28T09:37:46.667Z,45.23
2022-08-28T09:40:48.475Z,44.88
2022-08-28T09:43:27.558Z,43.71
2022-08-28T09:46:02.802Z,46.17
2022-08-28T09:48:44.450Z,45.09
2022-08-28T09:51:29.476Z,47.45
2022-08-28T09:54:05.296Z,43.98
2022-08-28T09:56:40.131Z,45.57
2022-08-28T09:59:13.171Z,45.65
2022-08-28T10:01:51.129Z,44.95
2022-08-28T10:04:24.116Z,46.44
2022-08-28T10:06:55.407Z,43.21
2022-08-28T10:09:34.625Z,44.00
2022-08-28T10:12:11.493Z,45.84
2022-08-28T10:14:49.090Z,45.92
2022-08-28T10:17:55.646Z,43.77
2022-08-28T10:21:00.314Z,44.00
2022-08-28T10:23:46.394Z,42.90
2022-08-28T10:26:32.789Z,43.63
2022-08-28T10:29:30.309Z,43.57
2022-08-28T10:32:21.638Z,45.12
2022-08-28T10:35:03.580Z,44.96
2022-08-28T10:37:37.015Z,44.84
2022-08-28T10:40:11.784Z,46.27
2022-08-28T10:42:44.609Z,47.08
2022-08-28T10:45:14.782Z,44.17
2022-08-28T10:47:46.443Z,45.63
2022-08-28T10:50:26.699Z,45.80
2022-08-28T10:52:58.750Z,48.12
2022-08-28T10:55:34.791Z,45.62
2022-08-28T10:58:24.556Z,46.75
2022-08-28T11:01:05.428Z,46.96
2022-08-28T11:03:40.714Z,45.86
2022-08-28T11:06:34.020Z,45.80
2022-08-28T11:09:24.874Z,44.75
2022-08-28T11:12:01.735Z,46.53
2022-08-28T11:14:47.881Z,47.81
2022-08-28T11:17:21.906Z,44.44
2022-08-28T11:20:16.071Z,43.74
2022-08-28T11:22:48.997Z,46.36
2022-08-28T11:25:26.706Z,44.92
2022-08-28T11:28:22.503Z,43.95
2022-08-28T11:31:19.111Z,43.79
2022-08-28T11:33:59.285Z,44.37
2022-08-28T11:36:28.267Z,44.45
2022-08-28T11:38:55.666Z,46.47
2022-08-28T11:41:30.780Z,47.27
2022-08-28T11:44:13.018Z,46.15
2022-08-28T11:46:45.133Z,47.66
2022-08-28T11:49:27.398Z,46.22
2022-08-28T11:52:21.648Z,46.65
2022-08-28T11:55:14.523Z,47.76
2022-08-28T12:00:51.590Z,46.87
2022-08-28T12:03:35.845Z,44.88
2022-08-28T12:06:03.774Z,44.49
2022-08-28T12:08:59.198Z,44.55
2022-08-28T12:11:41.949Z,42.65
2022-08-28T12:14:29.650Z,40.15
2022-08-28T12:17:00.160Z,40.58
2022-08-28T12:19:56.851Z,42.51
2022-08-28T12:22:26.725Z,41.79
2022-08-28T12:24:59.895Z,41.29
2022-08-28T12:27:28.910Z,42.19
2022-08-28T12:29:58.816Z,42.35
2022-08-28T12:32:26.220Z,43.10
2022-08-28T12:34:53.401Z,44.56
2022-08-28T12:37:20.929Z,44.33
2022-08-28T12:39:48.555Z,44.99
2022-08-28T12:42:20.205Z,46.78
2022-08-28T12:44:47.966Z,46.80
2022-08-28T12:47:18.971Z,49.03
2022-08-28T12:49:47.157Z,49.76
2022-08-28T12:52:18.811Z,51.36
2022-08-28T12:54:47.529Z,54.16
2022-08-28T12:57:23.946Z,53.71
2022-08-28T12:59:54.125Z,54.54
2022-08-28T13:02:34.561Z,53.84
2022-08-28T13:05:11.851Z,54.57
2022-08-28T13:07:51.520Z,57.46
2022-08-28T13:10:38.606Z,56.48
2022-08-28T13:13:19.092Z,58.76
2022-08-28T13:15:57.171Z,59.80
2022-08-28T13:18:39.004Z,71.60
2022-08-28T13:21:33.213Z,67.77
2022-08-28T13:24:26.296Z,72.86
2022-08-28T13:27:14.333Z,70.44
2022-08-28T13:30:00.915Z,80.75
2022-08-28T13:32:30.648Z,76.85
2022-08-28T13:35:10.548Z,74.30
2022-08-28T13:37:50.195Z,81.78
2022-08-28T13:40:53.527Z,90.78
2022-08-28T13:43:11.049Z,79.76
2022-08-28T13:45:43.094Z,68.11
2022-08-28T13:48:16.634Z,74.12
2022-08-28T13:50:47.657Z,59.67
2022-08-28T13:53:18.028Z,60.32
2022-08-28T13:55:47.210Z,64.21
2022-08-28T13:58:14.820Z,56.42
2022-08-28T14:00:46.591Z,58.49
2022-08-28T14:03:32.944Z,69.04
2022-08-28T14:06:00.727Z,63.24
2022-08-28T14:08:28.309Z,70.12
2022-08-28T14:10:55.663Z,73.04
2022-08-28T14:13:26.840Z,65.67
2022-08-28T14:15:56.145Z,62.17
2022-08-28T14:18:25.830Z,59.98
2022-08-28T14:20:53.229Z,62.49
2022-08-28T14:23:20.635Z,56.51
2022-08-28T14:25:49.222Z,62.69
2022-08-28T14:28:17.303Z,56.34
2022-08-28T14:30:49.547Z,56.15
2022-08-28T14:33:20.543Z,57.46
2022-08-28T14:35:49.383Z,54.45
2022-08-28T14:38:17.359Z,59.02
2022-08-28T14:40:45.500Z,64.33
2022-08-28T14:43:14.066Z,64.60
2022-08-28T14:45:46.635Z,64.54
2022-08-28T14:48:15.086Z,65.25
2022-08-28T14:50:44.091Z,62.95
2022-08-28T14:53:13.993Z,62.30
2022-08-28T14:55:45.818Z,61.70
2022-08-28T14:58:14.798Z,56.77
2022-08-28T15:00:49.035Z,58.81
2022-08-28T15:03:18.730Z,59.38
2022-08-28T15:05:47.012Z,61.05
2022-08-28T15:08:17.128Z,60.12
2022-08-28T15:10:45.018Z,61.34
2022-08-28T15:13:13.081Z,64.60
2022-08-28T15:15:43.297Z,65.46
2022-08-28T15:18:11.573Z,65.84
2022-08-28T15:20:46.566Z,67.56
2022-08-28T15:23:15.345Z,68.56
2022-08-28T15:25:43.209Z,63.64
2022-08-28T15:28:10.973Z,63.43
2022-08-28T15:30:39.440Z,64.72
2022-08-28T15:33:09.350Z,69.41
2022-08-28T15:35:37.356Z,70.86
2022-08-28T15:38:05.779Z,73.22
2022-08-28T15:40:52.572Z,76.02
2022-08-28T15:43:20.855Z,78.77
2022-08-28T15:45:48.438Z,80.01
2022-08-28T15:48:16.241Z,81.33
2022-08-28T15:50:44.948Z,80.86
2022-08-28T15:53:12.997Z,83.31
2022-08-28T15:55:40.869Z,82.32
2022-08-28T15:58:08.905Z,79.11
2022-08-28T16:00:42.756Z,82.26
2022-08-28T16:03:10.799Z,87.65
2022-08-28T16:05:39.685Z,87.43
2022-08-28T16:08:10.602Z,91.05
2022-08-28T16:10:38.883Z,96.54
2022-08-28T16:13:08.300Z,93.81
2022-08-28T16:15:37.104Z,93.21
2022-08-28T16:18:09.311Z,91.54
2022-08-28T16:20:38.089Z,90.92
2022-08-28T16:23:09.273Z,96.64
2022-08-28T16:25:41.168Z,98.83
2022-08-28T16:28:13.566Z,100.00
2022-08-28T16:30:43.851Z,100.00
2022-08-28T16:33:16.747Z,100.00
2022-08-28T16:35:56.097Z,100.00
2022-08-28T16:38:28.304Z,100.00
2022-08-28T16:40:55.754Z,100.00
2022-08-28T16:43:23.281Z,100.00
2022-08-28T16:45:51.276Z,100.00
2022-08-28T16:48:19.172Z,100.00
2022-08-28T16:50:46.717Z,100.00
2022-08-28T16:53:14.139Z,100.00
2022-08-28T16:55:47.816Z,100.00
2022-08-28T16:58:17.077Z,100.00
2022-08-28T17:00:54.833Z,100.00
2022-08-28T17:03:26.513Z,100.00
2022-08-28T17:05:56.457Z,100.00
2022-08-28T17:08:24.010Z,100.00
2022-08-28T17:10:51.898Z,100.00
2022-08-28T17:13:19.261Z,100.00
2022-08-28T17:15:46.603Z,100.00
2022-08-28T17:18:14.429Z,100.00
2022-08-28T17:21:00.483Z,100.00
2022-08-28T17:23:28.250Z,100.00
2022-08-28T17:25:56.103Z,100.00
2022-08-28T17:28:23.796Z,100.00
2022-08-28T17:30:51.469Z,100.00
2022-08-28T17:33:18.856Z,100.00
2022-08-28T17:35:46.309Z,100.00
2022-08-28T17:38:18.028Z,100.00
2022-08-28T17:40:45.408Z,100.00
2022-08-28T17:43:12.829Z,100.00
2022-08-28T17:45:40.510Z,100.00
2022-08-28T17:48:08.444Z,94.44
2022-08-28T17:50:35.777Z,92.91
2022-08-28T17:53:03.704Z,93.02
2022-08-28T17:55:31.118Z,92.23
2022-08-28T17:57:59.099Z,92.39
2022-08-28T18:00:26.647Z,93.52
2022-08-28T18:02:54.807Z,95.05
2022-08-28T18:05:22.337Z,96.53
2022-08-28T18:07:50.189Z,97.67
2022-08-28T18:10:17.691Z,98.16
2022-08-28T18:12:46.346Z,99.88
2022-08-28T18:15:15.134Z,100.00
2022-08-28T18:17:44.152Z,100.00
2022-08-28T18:20:12.491Z,100.00
2022-08-28T18:22:40.217Z,100.00
2022-08-28T18:25:08.284Z,100.00
2022-08-28T18:27:36.758Z,100.00
2022-08-28T18:30:04.897Z,100.00
2022-08-28T18:32:32.558Z,100.00
2022-08-28T18:35:00.017Z,100.00
2022-08-28T18:37:27.703Z,100.00
2022-08-28T18:39:55.479Z,100.00
2022-08-28T18:42:23.831Z,100.00
2022-08-28T18:44:51.642Z,100.00
2022-08-28T18:47:19.212Z,100.00
2022-08-28T18:49:46.840Z,100.00
2022-08-28T18:52:14.665Z,100.00
2022-08-28T18:54:42.589Z,100.00
2022-08-28T18:57:11.714Z,100.00
2022-08-28T18:59:39.581Z,100.00
2022-08-28T19:02:07.808Z,100.00
2022-08-28T19:04:36.652Z,100.00
2022-08-28T19:07:05.715Z,100.00
2022-08-28T19:09:34.898Z,100.00
2022-08-28T19:12:02.733Z,100.00
2022-08-28T19:14:30.915Z,100.00
2022-08-28T19:16:58.560Z,100.00
2022-08-28T19:19:26.488Z,100.00
2022-08-28T19:21:54.643Z,100.00
2022-08-28T19:24:22.531Z,100.00
2022-08-28T19:26:49.874Z,100.00
2022-08-28T19:29:17.758Z,100.00
2022-08-28T19:31:45.293Z,100.00
2022-08-28T19:34:13.237Z,100.00
2022-08-28T19:36:42.049Z,100.00
2022-08-28T19:39:09.525Z,100.00
2022-08-28T19:41:37.628Z,100.00
2022-08-28T19:44:06.197Z,100.00
2022-08-28T19:46:36.292Z,100.00
2022-08-28T19:49:05.091Z,100.00
2022-08-28T19:51:34.460Z,100.00
2022-08-28T19:54:03.883Z,100.00
2022-08-28T19:56:33.401Z,100.00
2022-08-28T19:59:03.197Z,100.00
2022-08-28T20:01:33.271Z,100.00
2022-08-28T20:04:00.731Z,100.00
2022-08-28T20:06:31.671Z,100.00
2022-08-28T20:08:59.602Z,100.00
2022-08-28T20:11:30.403Z,100.00
2022-08-28T20:14:04.585Z,100.00
2022-08-28T20:16:35.230Z,100.00
2022-08-28T20:19:04.062Z,100.00
2022-08-28T20:21:37.850Z,100.00
2022-08-28T20:24:13.317Z,100.00
2022-08-28T20:26:40.753Z,100.00
2022-08-28T20:29:09.071Z,100.00
2022-08-28T20:31:43.709Z,100.00
2022-08-28T20:34:12.687Z,100.00
2022-08-28T20:36:40.451Z,100.00
2022-08-28T20:39:09.397Z,100.00
2022-08-28T20:41:39.008Z,100.00
2022-08-28T20:44:07.966Z,100.00
2022-08-28T20:46:43.551Z,100.00
2022-08-28T20:49:12.328Z,100.00
2022-08-28T20:51:53.248Z,100.00
2022-08-28T20:54:26.922Z,100.00
2022-08-28T20:56:55.094Z,100.00
2022-08-28T20:59:22.521Z,100.00
2022-08-28T21:01:51.338Z,100.00
2022-08-28T21:04:18.874Z,100.00
2022-08-28T21:06:46.962Z,100.00
2022-08-28T21:09:15.239Z,100.00
2022-08-28T21:11:43.819Z,100.00
2022-08-28T21:14:12.044Z,100.00
2022-08-28T21:16:40.448Z,100.00
2022-08-28T21:19:16.691Z,100.00
2022-08-28T21:21:45.695Z,100.00
2022-08-28T21:24:15.289Z,100.00
2022-08-28T21:26:44.701Z,100.00
2022-08-28T21:29:14.112Z,100.00
2022-08-28T21:31:43.166Z,100.00
2022-08-28T21:34:11.904Z,100.00
2022-08-28T21:36:48.106Z,100.00
2022-08-28T21:39:20.863Z,100.00
2022-08-28T21:41:50.075Z,100.00
2022-08-28T21:44:18.335Z,100.00
2022-08-28T21:46:45.857Z,100.00
2022-08-28T21:49:13.525Z,100.00
2022-08-28T21:51:40.996Z,100.00
2022-08-28T21:54:08.836Z,100.00
2022-08-28T21:56:36.456Z,100.00
2022-08-28T21:59:04.325Z,100.00
2022-08-28T22:01:31.630Z,100.00
2022-08-28T22:03:59.311Z,100.00
2022-08-28T22:06:27.224Z,100.00
2022-08-28T22:08:55.672Z,100.00
2022-08-28T22:11:25.207Z,100.00
2022-08-28T22:13:54.456Z,100.00
2022-08-28T22:16:22.051Z,100.00
2022-08-28T22:18:50.144Z,100.00
2022-08-28T22:21:43.761Z,100.00
2022-08-28T22:24:12.188Z,100.00
2022-08-28T22:26:39.851Z,100.00
2022-08-28T22:29:08.102Z,100.00
2022-08-28T22:31:36.695Z,100.00
2022-08-28T22:34:06.987Z,100.00
2022-08-28T22:36:34.361Z,100.00
2022-08-28T22:39:01.783Z,100.00
2022-08-28T22:41:30.363Z,100.00
2022-08-28T22:43:58.068Z,100.00
2022-08-28T22:46:25.683Z,100.00
2022-08-28T22:48:53.233Z,100.00
2022-08-28T22:51:20.750Z,100.00
2022-08-28T22:53:48.749Z,100.00
2022-08-28T22:56:17.448Z,100.00
2022-08-28T22:58:45.183Z,100.00
2022-08-28T23:01:19.692Z,100.00
2022-08-28T23:03:47.389Z,100.00
2022-08-28T23:06:15.635Z,100.00
2022-08-28T23:08:43.002Z,100.00
2022-08-28T23:11:11.245Z,100.00
2022-08-28T23:13:39.278Z,100.00
2022-08-28T23:16:07.124Z,100.00
2022-08-28T23:18:51.642Z,100.00
2022-08-28T23:21:23.844Z,100.00
2022-08-28T23:23:55.053Z,100.00
2022-08-28T23:26:22.847Z,100.00
2022-08-28T23:28:50.241Z,100.00
2022-08-28T23:31:17.986Z,100.00
2022-08-28T23:33:45.913Z,100.00
2022-08-28T23:36:13.331Z,100.00
2022-08-28T23:38:43.096Z,100.00
2022-08-28T23:41:11.755Z,100.00
2022-08-28T23:43:41.079Z,100.00
2022-08-28T23:46:09.892Z,100.00
2022-08-28T23:48:41.431Z,100.00
2022-08-28T23:51:10.044Z,100.00
2022-08-28T23:53:40.139Z,100.00
2022-08-28T23:56:07.979Z,100.00
2022-08-28T23:58:35.624Z,100.00
